sensor_id;sensor_type;location;lat;lon;timestamp;temperature;humidity
20091;DHT22;10205;49.678;6.560;2023-09-07T00:00:05;26.20;48.70
20091;DHT22;10205;49.678;6.560;2023-09-07T00:02:36;26.20;48.80
20091;DHT22;10205;49.678;6.560;2023-09-07T00:05:05;26.10;48.80
20091;DHT22;10205;49.678;6.560;2023-09-07T00:07:34;26.10;48.90
20091;DHT22;10205;49.678;6.560;2023-09-07T00:10:02;26.00;48.90
20091;DHT22;10205;49.678;6.560;2023-09-07T00:12:30;26.00;49.60
20091;DHT22;10205;49.678;6.560;2023-09-07T00:14:57;25.90;49.00
20091;DHT22;10205;49.678;6.560;2023-09-07T00:17:25;25.90;49.10
20091;DHT22;10205;49.678;6.560;2023-09-07T00:19:52;25.80;49.10
20091;DHT22;10205;49.678;6.560;2023-09-07T00:22:22;25.80;49.10
20091;DHT22;10205;49.678;6.560;2023-09-07T00:24:52;25.80;49.20
20091;DHT22;10205;49.678;6.560;2023-09-07T00:27:19;25.70;49.30
20091;DHT22;10205;49.678;6.560;2023-09-07T00:29:46;25.60;49.20
20091;DHT22;10205;49.678;6.560;2023-09-07T00:32:13;25.60;49.30
20091;DHT22;10205;49.678;6.560;2023-09-07T00:34:40;25.60;49.40
20091;DHT22;10205;49.678;6.560;2023-09-07T00:37:07;25.50;49.30
20091;DHT22;10205;49.678;6.560;2023-09-07T00:39:34;25.50;49.40
20091;DHT22;10205;49.678;6.560;2023-09-07T00:42:03;25.40;49.40
20091;DHT22;10205;49.678;6.560;2023-09-07T00:44:31;25.40;49.50
20091;DHT22;10205;49.678;6.560;2023-09-07T00:46:58;25.30;49.50
20091;DHT22;10205;49.678;6.560;2023-09-07T00:49:25;25.30;49.50
20091;DHT22;10205;49.678;6.560;2023-09-07T00:51:52;25.30;49.60
20091;DHT22;10205;49.678;6.560;2023-09-07T00:54:20;25.20;49.60
20091;DHT22;10205;49.678;6.560;2023-09-07T00:56:47;25.20;49.60
20091;DHT22;10205;49.678;6.560;2023-09-07T00:59:16;25.10;49.60
20091;DHT22;10205;49.678;6.560;2023-09-07T01:01:43;25.10;49.70
20091;DHT22;10205;49.678;6.560;2023-09-07T01:04:10;25.00;49.60
20091;DHT22;10205;49.678;6.560;2023-09-07T01:06:39;25.00;49.70
20091;DHT22;10205;49.678;6.560;2023-09-07T01:09:14;25.00;49.80
20091;DHT22;10205;49.678;6.560;2023-09-07T01:11:43;24.90;49.90
20091;DHT22;10205;49.678;6.560;2023-09-07T01:14:10;24.90;49.80
20091;DHT22;10205;49.678;6.560;2023-09-07T01:16:39;24.80;49.80
20091;DHT22;10205;49.678;6.560;2023-09-07T01:19:07;24.80;50.00
20091;DHT22;10205;49.678;6.560;2023-09-07T01:21:37;24.80;49.90
20091;DHT22;10205;49.678;6.560;2023-09-07T01:24:07;24.70;50.00
20091;DHT22;10205;49.678;6.560;2023-09-07T01:26:35;24.70;50.10
20091;DHT22;10205;49.678;6.560;2023-09-07T01:29:04;24.60;50.00
20091;DHT22;10205;49.678;6.560;2023-09-07T01:31:34;24.60;50.00
20091;DHT22;10205;49.678;6.560;2023-09-07T01:34:02;24.50;50.20
20091;DHT22;10205;49.678;6.560;2023-09-07T01:36:30;24.50;50.10
20091;DHT22;10205;49.678;6.560;2023-09-07T01:38:59;24.50;50.20
20091;DHT22;10205;49.678;6.560;2023-09-07T01:41:26;24.40;50.30
20091;DHT22;10205;49.678;6.560;2023-09-07T01:43:54;24.40;50.20
20091;DHT22;10205;49.678;6.560;2023-09-07T01:46:21;24.40;50.30
20091;DHT22;10205;49.678;6.560;2023-09-07T01:48:48;24.30;50.30
20091;DHT22;10205;49.678;6.560;2023-09-07T01:51:16;24.20;50.40
20091;DHT22;10205;49.678;6.560;2023-09-07T01:53:43;24.20;50.40
20091;DHT22;10205;49.678;6.560;2023-09-07T01:56:11;24.20;50.50
20091;DHT22;10205;49.678;6.560;2023-09-07T01:58:38;24.10;50.50
20091;DHT22;10205;49.678;6.560;2023-09-07T02:01:06;24.10;50.50
20091;DHT22;10205;49.678;6.560;2023-09-07T02:03:33;24.10;50.60
20091;DHT22;10205;49.678;6.560;2023-09-07T02:06:00;24.00;50.60
20091;DHT22;10205;49.678;6.560;2023-09-07T02:08:27;24.00;50.70
20091;DHT22;10205;49.678;6.560;2023-09-07T02:10:54;23.90;50.70
20091;DHT22;10205;49.678;6.560;2023-09-07T02:13:23;23.90;50.70
20091;DHT22;10205;49.678;6.560;2023-09-07T02:15:50;23.90;50.80
20091;DHT22;10205;49.678;6.560;2023-09-07T02:18:17;23.80;50.70
20091;DHT22;10205;49.678;6.560;2023-09-07T02:20:45;23.80;50.80
20091;DHT22;10205;49.678;6.560;2023-09-07T02:23:12;23.80;50.80
20091;DHT22;10205;49.678;6.560;2023-09-07T02:25:40;23.70;50.40
20091;DHT22;10205;49.678;6.560;2023-09-07T02:28:08;23.70;50.90
20091;DHT22;10205;49.678;6.560;2023-09-07T02:30:36;23.70;51.00
20091;DHT22;10205;49.678;6.560;2023-09-07T02:33:03;23.60;51.00
20091;DHT22;10205;49.678;6.560;2023-09-07T02:35:31;23.50;50.90
20091;DHT22;10205;49.678;6.560;2023-09-07T02:37:58;23.50;51.00
20091;DHT22;10205;49.678;6.560;2023-09-07T02:40:25;23.50;51.00
20091;DHT22;10205;49.678;6.560;2023-09-07T02:42:52;23.50;51.10
20091;DHT22;10205;49.678;6.560;2023-09-07T02:45:19;23.40;51.10
20091;DHT22;10205;49.678;6.560;2023-09-07T02:47:48;23.40;51.20
20091;DHT22;10205;49.678;6.560;2023-09-07T02:50:16;23.40;51.20
20091;DHT22;10205;49.678;6.560;2023-09-07T02:52:43;23.30;51.20
20091;DHT22;10205;49.678;6.560;2023-09-07T02:55:10;23.30;51.20
20091;DHT22;10205;49.678;6.560;2023-09-07T02:57:37;23.20;51.20
20091;DHT22;10205;49.678;6.560;2023-09-07T03:00:06;23.20;51.30
20091;DHT22;10205;49.678;6.560;2023-09-07T03:02:37;23.20;51.40
20091;DHT22;10205;49.678;6.560;2023-09-07T03:05:06;23.20;51.40
20091;DHT22;10205;49.678;6.560;2023-09-07T03:07:34;23.10;51.40
20091;DHT22;10205;49.678;6.560;2023-09-07T03:10:01;23.10;51.40
20091;DHT22;10205;49.678;6.560;2023-09-07T03:12:29;23.10;51.40
20091;DHT22;10205;49.678;6.560;2023-09-07T03:14:56;23.00;51.40
20091;DHT22;10205;49.678;6.560;2023-09-07T03:17:23;23.00;51.40
20091;DHT22;10205;49.678;6.560;2023-09-07T03:19:50;22.90;51.40
20091;DHT22;10205;49.678;6.560;2023-09-07T03:22:18;22.90;51.50
20091;DHT22;10205;49.678;6.560;2023-09-07T03:24:46;22.90;51.60
20091;DHT22;10205;49.678;6.560;2023-09-07T03:27:13;22.80;52.20
20091;DHT22;10205;49.678;6.560;2023-09-07T03:29:40;22.80;51.70
20091;DHT22;10205;49.678;6.560;2023-09-07T03:32:07;22.80;51.70
20091;DHT22;10205;49.678;6.560;2023-09-07T03:34:34;22.70;51.70
20091;DHT22;10205;49.678;6.560;2023-09-07T03:37:01;22.70;51.70
20091;DHT22;10205;49.678;6.560;2023-09-07T03:39:32;22.70;51.70
20091;DHT22;10205;49.678;6.560;2023-09-07T03:42:00;22.60;51.80
20091;DHT22;10205;49.678;6.560;2023-09-07T03:44:27;22.60;51.80
20091;DHT22;10205;49.678;6.560;2023-09-07T03:46:54;22.60;51.80
20091;DHT22;10205;49.678;6.560;2023-09-07T03:49:21;22.60;51.90
20091;DHT22;10205;49.678;6.560;2023-09-07T03:51:48;22.50;51.80
20091;DHT22;10205;49.678;6.560;2023-09-07T03:54:15;22.50;51.90
20091;DHT22;10205;49.678;6.560;2023-09-07T03:56:44;22.40;51.90
20091;DHT22;10205;49.678;6.560;2023-09-07T03:59:11;22.40;51.90
20091;DHT22;10205;49.678;6.560;2023-09-07T04:01:38;22.40;51.90
20091;DHT22;10205;49.678;6.560;2023-09-07T04:04:06;22.30;51.90
20091;DHT22;10205;49.678;6.560;2023-09-07T04:06:33;22.30;52.00
20091;DHT22;10205;49.678;6.560;2023-09-07T04:09:00;22.30;52.00
20091;DHT22;10205;49.678;6.560;2023-09-07T04:11:27;22.20;52.00
20091;DHT22;10205;49.678;6.560;2023-09-07T04:13:55;22.20;52.10
20091;DHT22;10205;49.678;6.560;2023-09-07T04:16:23;22.20;52.10
20091;DHT22;10205;49.678;6.560;2023-09-07T04:18:50;22.10;52.10
20091;DHT22;10205;49.678;6.560;2023-09-07T04:21:17;22.10;52.10
20091;DHT22;10205;49.678;6.560;2023-09-07T04:23:44;22.10;52.10
20091;DHT22;10205;49.678;6.560;2023-09-07T04:26:11;22.10;52.20
20091;DHT22;10205;49.678;6.560;2023-09-07T04:28:39;22.00;52.80
20091;DHT22;10205;49.678;6.560;2023-09-07T04:31:07;22.00;52.20
20091;DHT22;10205;49.678;6.560;2023-09-07T04:33:34;22.00;52.30
20091;DHT22;10205;49.678;6.560;2023-09-07T04:36:09;22.00;52.30
20091;DHT22;10205;49.678;6.560;2023-09-07T04:38:36;21.90;52.50
20091;DHT22;10205;49.678;6.560;2023-09-07T04:41:07;21.90;53.00
20091;DHT22;10205;49.678;6.560;2023-09-07T04:43:35;21.90;52.50
20091;DHT22;10205;49.678;6.560;2023-09-07T04:46:03;21.80;52.40
20091;DHT22;10205;49.678;6.560;2023-09-07T04:48:31;21.80;52.40
20091;DHT22;10205;49.678;6.560;2023-09-07T04:50:59;21.80;52.40
20091;DHT22;10205;49.678;6.560;2023-09-07T04:53:28;21.70;52.40
20091;DHT22;10205;49.678;6.560;2023-09-07T04:55:56;21.70;52.50
20091;DHT22;10205;49.678;6.560;2023-09-07T04:58:24;21.70;52.50
20091;DHT22;10205;49.678;6.560;2023-09-07T05:00:51;21.60;52.50
20091;DHT22;10205;49.678;6.560;2023-09-07T05:03:19;21.60;52.60
20091;DHT22;10205;49.678;6.560;2023-09-07T05:05:53;21.60;53.20
20091;DHT22;10205;49.678;6.560;2023-09-07T05:08:21;21.50;52.70
20091;DHT22;10205;49.678;6.560;2023-09-07T05:10:54;21.50;52.60
20091;DHT22;10205;49.678;6.560;2023-09-07T05:13:22;21.50;52.80
20091;DHT22;10205;49.678;6.560;2023-09-07T05:15:50;21.40;52.60
20091;DHT22;10205;49.678;6.560;2023-09-07T05:18:19;21.40;52.70
20091;DHT22;10205;49.678;6.560;2023-09-07T05:20:47;21.40;52.80
20091;DHT22;10205;49.678;6.560;2023-09-07T05:23:18;21.30;52.70
20091;DHT22;10205;49.678;6.560;2023-09-07T05:25:46;21.30;52.80
20091;DHT22;10205;49.678;6.560;2023-09-07T05:28:16;21.30;52.80
20091;DHT22;10205;49.678;6.560;2023-09-07T05:30:43;21.20;52.90
20091;DHT22;10205;49.678;6.560;2023-09-07T05:33:12;21.20;52.90
20091;DHT22;10205;49.678;6.560;2023-09-07T05:35:40;21.20;53.00
20091;DHT22;10205;49.678;6.560;2023-09-07T05:38:08;21.10;52.90
20091;DHT22;10205;49.678;6.560;2023-09-07T05:40:38;21.10;53.00
20091;DHT22;10205;49.678;6.560;2023-09-07T05:43:06;21.10;53.10
20091;DHT22;10205;49.678;6.560;2023-09-07T05:45:34;21.10;53.10
20091;DHT22;10205;49.678;6.560;2023-09-07T05:48:04;21.00;53.10
20091;DHT22;10205;49.678;6.560;2023-09-07T05:50:33;21.00;53.10
20091;DHT22;10205;49.678;6.560;2023-09-07T05:53:01;21.00;53.20
20091;DHT22;10205;49.678;6.560;2023-09-07T05:55:28;20.90;53.20
20091;DHT22;10205;49.678;6.560;2023-09-07T05:57:58;20.90;53.20
20091;DHT22;10205;49.678;6.560;2023-09-07T06:00:25;20.90;53.40
20091;DHT22;10205;49.678;6.560;2023-09-07T06:02:52;20.80;53.30
20091;DHT22;10205;49.678;6.560;2023-09-07T06:05:19;20.80;53.40
20091;DHT22;10205;49.678;6.560;2023-09-07T06:07:46;20.80;53.40
20091;DHT22;10205;49.678;6.560;2023-09-07T06:10:14;20.80;53.50
20091;DHT22;10205;49.678;6.560;2023-09-07T06:12:43;20.70;53.50
20091;DHT22;10205;49.678;6.560;2023-09-07T06:15:11;20.70;53.50
20091;DHT22;10205;49.678;6.560;2023-09-07T06:17:38;20.70;53.60
20091;DHT22;10205;49.678;6.560;2023-09-07T06:20:07;20.60;53.50
20091;DHT22;10205;49.678;6.560;2023-09-07T06:22:34;20.70;53.70
20091;DHT22;10205;49.678;6.560;2023-09-07T06:25:02;20.60;53.60
20091;DHT22;10205;49.678;6.560;2023-09-07T06:27:29;20.60;53.60
20091;DHT22;10205;49.678;6.560;2023-09-07T06:29:56;20.60;53.60
20091;DHT22;10205;49.678;6.560;2023-09-07T06:32:25;20.60;53.70
20091;DHT22;10205;49.678;6.560;2023-09-07T06:34:52;20.60;53.80
20091;DHT22;10205;49.678;6.560;2023-09-07T06:37:19;20.60;53.70
20091;DHT22;10205;49.678;6.560;2023-09-07T06:39:46;20.50;54.20
20091;DHT22;10205;49.678;6.560;2023-09-07T06:42:13;20.50;54.20
20091;DHT22;10205;49.678;6.560;2023-09-07T06:44:41;20.50;54.30
20091;DHT22;10205;49.678;6.560;2023-09-07T06:47:08;20.50;54.30
20091;DHT22;10205;49.678;6.560;2023-09-07T06:49:37;20.40;54.40
20091;DHT22;10205;49.678;6.560;2023-09-07T06:52:04;20.40;54.60
20091;DHT22;10205;49.678;6.560;2023-09-07T06:54:32;20.40;54.60
20091;DHT22;10205;49.678;6.560;2023-09-07T06:56:59;20.40;54.60
20091;DHT22;10205;49.678;6.560;2023-09-07T06:59:26;20.40;54.70
20091;DHT22;10205;49.678;6.560;2023-09-07T07:01:53;20.40;54.70
20091;DHT22;10205;49.678;6.560;2023-09-07T07:04:20;20.40;54.70
20091;DHT22;10205;49.678;6.560;2023-09-07T07:06:48;20.40;54.80
20091;DHT22;10205;49.678;6.560;2023-09-07T07:09:15;20.30;54.90
20091;DHT22;10205;49.678;6.560;2023-09-07T07:11:43;20.40;55.00
20091;DHT22;10205;49.678;6.560;2023-09-07T07:14:10;20.40;55.00
20091;DHT22;10205;49.678;6.560;2023-09-07T07:16:37;20.40;55.00
20091;DHT22;10205;49.678;6.560;2023-09-07T07:19:04;20.40;55.20
20091;DHT22;10205;49.678;6.560;2023-09-07T07:21:31;20.40;55.20
20091;DHT22;10205;49.678;6.560;2023-09-07T07:24:00;20.40;55.30
20091;DHT22;10205;49.678;6.560;2023-09-07T07:26:27;20.40;55.40
20091;DHT22;10205;49.678;6.560;2023-09-07T07:28:54;20.50;55.40
20091;DHT22;10205;49.678;6.560;2023-09-07T07:31:21;20.40;55.40
20091;DHT22;10205;49.678;6.560;2023-09-07T07:33:48;20.50;55.40
20091;DHT22;10205;49.678;6.560;2023-09-07T07:36:15;20.50;55.40
20091;DHT22;10205;49.678;6.560;2023-09-07T07:38:42;20.60;55.50
20091;DHT22;10205;49.678;6.560;2023-09-07T07:41:11;20.60;55.50
20091;DHT22;10205;49.678;6.560;2023-09-07T07:43:38;20.60;55.60
20091;DHT22;10205;49.678;6.560;2023-09-07T07:46:05;20.70;55.60
20091;DHT22;10205;49.678;6.560;2023-09-07T07:48:33;20.70;55.60
20091;DHT22;10205;49.678;6.560;2023-09-07T07:51:03;20.80;55.60
20091;DHT22;10205;49.678;6.560;2023-09-07T07:53:30;20.80;55.70
20091;DHT22;10205;49.678;6.560;2023-09-07T07:55:58;20.90;55.60
20091;DHT22;10205;49.678;6.560;2023-09-07T07:58:26;20.90;55.70
20091;DHT22;10205;49.678;6.560;2023-09-07T08:00:53;21.00;55.70
20091;DHT22;10205;49.678;6.560;2023-09-07T08:03:23;21.00;55.60
20091;DHT22;10205;49.678;6.560;2023-09-07T08:05:50;21.10;55.70
20091;DHT22;10205;49.678;6.560;2023-09-07T08:08:17;21.20;55.70
20091;DHT22;10205;49.678;6.560;2023-09-07T08:10:45;21.20;55.80
20091;DHT22;10205;49.678;6.560;2023-09-07T08:13:12;21.30;55.80
20091;DHT22;10205;49.678;6.560;2023-09-07T08:15:40;21.30;55.80
20091;DHT22;10205;49.678;6.560;2023-09-07T08:18:08;21.40;55.80
20091;DHT22;10205;49.678;6.560;2023-09-07T08:20:35;21.40;55.70
20091;DHT22;10205;49.678;6.560;2023-09-07T08:23:05;21.50;55.80
20091;DHT22;10205;49.678;6.560;2023-09-07T08:25:35;21.60;56.00
20091;DHT22;10205;49.678;6.560;2023-09-07T08:28:02;21.70;56.20
20091;DHT22;10205;49.678;6.560;2023-09-07T08:30:32;21.70;56.20
20091;DHT22;10205;49.678;6.560;2023-09-07T08:33:01;21.80;56.20
20091;DHT22;10205;49.678;6.560;2023-09-07T08:35:30;21.90;56.30
20091;DHT22;10205;49.678;6.560;2023-09-07T08:38:00;22.00;56.30
20091;DHT22;10205;49.678;6.560;2023-09-07T08:40:31;22.00;56.30
20091;DHT22;10205;49.678;6.560;2023-09-07T08:43:00;22.10;56.10
20091;DHT22;10205;49.678;6.560;2023-09-07T08:45:37;22.20;56.30
20091;DHT22;10205;49.678;6.560;2023-09-07T08:48:10;22.30;56.40
20091;DHT22;10205;49.678;6.560;2023-09-07T08:50:41;22.40;56.10
20091;DHT22;10205;49.678;6.560;2023-09-07T08:53:09;22.50;56.20
20091;DHT22;10205;49.678;6.560;2023-09-07T08:55:36;22.60;56.20
20091;DHT22;10205;49.678;6.560;2023-09-07T08:58:03;22.70;56.30
20091;DHT22;10205;49.678;6.560;2023-09-07T09:00:31;22.70;56.40
20091;DHT22;10205;49.678;6.560;2023-09-07T09:02:59;22.80;56.30
20091;DHT22;10205;49.678;6.560;2023-09-07T09:05:28;22.90;56.10
20091;DHT22;10205;49.678;6.560;2023-09-07T09:08:04;23.10;56.50
20091;DHT22;10205;49.678;6.560;2023-09-07T09:10:32;23.20;56.50
20091;DHT22;10205;49.678;6.560;2023-09-07T09:12:59;23.20;56.00
20091;DHT22;10205;49.678;6.560;2023-09-07T09:15:26;23.30;55.80
20091;DHT22;10205;49.678;6.560;2023-09-07T09:17:53;23.50;55.90
20091;DHT22;10205;49.678;6.560;2023-09-07T09:20:22;23.50;55.80
20091;DHT22;10205;49.678;6.560;2023-09-07T09:22:52;23.70;55.90
20091;DHT22;10205;49.678;6.560;2023-09-07T09:25:21;23.70;55.70
20091;DHT22;10205;49.678;6.560;2023-09-07T09:27:49;23.80;55.60
20091;DHT22;10205;49.678;6.560;2023-09-07T09:30:16;24.00;55.60
20091;DHT22;10205;49.678;6.560;2023-09-07T09:32:43;24.10;55.50
20091;DHT22;10205;49.678;6.560;2023-09-07T09:35:11;24.20;55.50
20091;DHT22;10205;49.678;6.560;2023-09-07T09:37:45;24.30;55.40
20091;DHT22;10205;49.678;6.560;2023-09-07T09:40:14;24.40;55.00
20091;DHT22;10205;49.678;6.560;2023-09-07T09:42:42;24.50;55.40
20091;DHT22;10205;49.678;6.560;2023-09-07T09:45:11;24.60;55.00
20091;DHT22;10205;49.678;6.560;2023-09-07T09:47:40;24.70;54.80
20091;DHT22;10205;49.678;6.560;2023-09-07T09:50:09;24.80;54.70
20091;DHT22;10205;49.678;6.560;2023-09-07T09:52:38;24.90;54.50
20091;DHT22;10205;49.678;6.560;2023-09-07T09:55:06;25.10;54.60
20091;DHT22;10205;49.678;6.560;2023-09-07T09:57:39;25.20;54.70
20091;DHT22;10205;49.678;6.560;2023-09-07T10:00:08;25.30;54.40
20091;DHT22;10205;49.678;6.560;2023-09-07T10:02:57;25.40;54.30
20091;DHT22;10205;49.678;6.560;2023-09-07T10:05:27;25.50;54.20
20091;DHT22;10205;49.678;6.560;2023-09-07T10:08:01;25.60;54.00
20091;DHT22;10205;49.678;6.560;2023-09-07T10:10:33;25.70;54.00
20091;DHT22;10205;49.678;6.560;2023-09-07T10:13:04;25.80;53.90
20091;DHT22;10205;49.678;6.560;2023-09-07T10:15:32;25.90;53.80
20091;DHT22;10205;49.678;6.560;2023-09-07T10:18:10;26.10;53.80
20091;DHT22;10205;49.678;6.560;2023-09-07T10:20:51;26.20;53.50
20091;DHT22;10205;49.678;6.560;2023-09-07T10:23:21;26.30;53.30
20091;DHT22;10205;49.678;6.560;2023-09-07T10:25:50;26.40;53.30
20091;DHT22;10205;49.678;6.560;2023-09-07T10:28:21;26.50;53.30
20091;DHT22;10205;49.678;6.560;2023-09-07T10:31:02;26.60;53.00
20091;DHT22;10205;49.678;6.560;2023-09-07T10:33:31;26.70;52.90
20091;DHT22;10205;49.678;6.560;2023-09-07T10:35:59;26.90;53.10
20091;DHT22;10205;49.678;6.560;2023-09-07T10:38:27;26.90;53.00
20091;DHT22;10205;49.678;6.560;2023-09-07T10:40:58;27.10;52.90
20091;DHT22;10205;49.678;6.560;2023-09-07T10:43:28;27.20;52.80
20091;DHT22;10205;49.678;6.560;2023-09-07T10:45:57;27.30;52.60
20091;DHT22;10205;49.678;6.560;2023-09-07T10:48:27;27.40;52.50
20091;DHT22;10205;49.678;6.560;2023-09-07T10:50:56;27.50;52.40
20091;DHT22;10205;49.678;6.560;2023-09-07T10:53:27;27.60;52.30
20091;DHT22;10205;49.678;6.560;2023-09-07T10:55:57;27.70;52.20
20091;DHT22;10205;49.678;6.560;2023-09-07T10:58:29;27.80;52.00
20091;DHT22;10205;49.678;6.560;2023-09-07T11:00:58;28.00;52.50
20091;DHT22;10205;49.678;6.560;2023-09-07T11:03:27;28.00;51.80
20091;DHT22;10205;49.678;6.560;2023-09-07T11:05:56;28.10;51.60
20091;DHT22;10205;49.678;6.560;2023-09-07T11:08:27;28.20;51.40
20091;DHT22;10205;49.678;6.560;2023-09-07T11:10:56;28.30;51.30
20091;DHT22;10205;49.678;6.560;2023-09-07T11:13:24;28.40;51.30
20091;DHT22;10205;49.678;6.560;2023-09-07T11:15:55;28.50;51.20
20091;DHT22;10205;49.678;6.560;2023-09-07T11:18:23;28.60;51.00
20091;DHT22;10205;49.678;6.560;2023-09-07T11:20:52;28.70;50.90
20091;DHT22;10205;49.678;6.560;2023-09-07T11:23:21;28.80;50.70
20091;DHT22;10205;49.678;6.560;2023-09-07T11:25:50;28.90;50.60
20091;DHT22;10205;49.678;6.560;2023-09-07T11:28:19;29.00;50.60
20091;DHT22;10205;49.678;6.560;2023-09-07T11:30:54;29.10;50.50
20091;DHT22;10205;49.678;6.560;2023-09-07T11:33:22;29.20;50.20
20091;DHT22;10205;49.678;6.560;2023-09-07T11:35:50;29.30;50.20
20091;DHT22;10205;49.678;6.560;2023-09-07T11:38:18;29.40;50.10
20091;DHT22;10205;49.678;6.560;2023-09-07T11:40:45;29.50;50.00
20091;DHT22;10205;49.678;6.560;2023-09-07T11:43:12;29.50;49.80
20091;DHT22;10205;49.678;6.560;2023-09-07T11:45:40;29.70;49.70
20091;DHT22;10205;49.678;6.560;2023-09-07T11:48:09;29.70;49.60
20091;DHT22;10205;49.678;6.560;2023-09-07T11:50:37;29.80;49.40
20091;DHT22;10205;49.678;6.560;2023-09-07T11:53:05;29.90;49.40
20091;DHT22;10205;49.678;6.560;2023-09-07T11:55:33;30.00;49.40
20091;DHT22;10205;49.678;6.560;2023-09-07T11:58:01;30.10;49.30
20091;DHT22;10205;49.678;6.560;2023-09-07T12:00:28;30.10;49.70
20091;DHT22;10205;49.678;6.560;2023-09-07T12:02:59;30.30;49.00
20091;DHT22;10205;49.678;6.560;2023-09-07T12:05:28;30.30;48.60
20091;DHT22;10205;49.678;6.560;2023-09-07T12:07:55;30.40;48.50
20091;DHT22;10205;49.678;6.560;2023-09-07T12:10:22;30.50;48.50
20091;DHT22;10205;49.678;6.560;2023-09-07T12:12:50;30.60;48.50
20091;DHT22;10205;49.678;6.560;2023-09-07T12:15:17;30.70;48.30
20091;DHT22;10205;49.678;6.560;2023-09-07T12:17:44;30.80;48.30
20091;DHT22;10205;49.678;6.560;2023-09-07T12:20:12;30.80;48.10
20091;DHT22;10205;49.678;6.560;2023-09-07T12:22:41;30.90;48.00
20091;DHT22;10205;49.678;6.560;2023-09-07T12:25:08;31.00;47.60
20091;DHT22;10205;49.678;6.560;2023-09-07T12:27:36;31.00;47.60
20091;DHT22;10205;49.678;6.560;2023-09-07T12:30:04;31.10;47.60
20091;DHT22;10205;49.678;6.560;2023-09-07T12:32:37;31.20;47.40
20091;DHT22;10205;49.678;6.560;2023-09-07T12:35:05;31.30;47.10
20091;DHT22;10205;49.678;6.560;2023-09-07T12:37:34;31.40;47.10
20091;DHT22;10205;49.678;6.560;2023-09-07T12:40:04;31.40;47.10
20091;DHT22;10205;49.678;6.560;2023-09-07T12:42:38;31.50;46.60
20091;DHT22;10205;49.678;6.560;2023-09-07T12:45:07;31.60;46.90
20091;DHT22;10205;49.678;6.560;2023-09-07T12:47:35;31.60;46.40
20091;DHT22;10205;49.678;6.560;2023-09-07T12:50:02;31.70;46.70
20091;DHT22;10205;49.678;6.560;2023-09-07T12:52:30;31.70;46.60
20091;DHT22;10205;49.678;6.560;2023-09-07T12:54:57;31.80;46.40
20091;DHT22;10205;49.678;6.560;2023-09-07T12:57:26;31.90;46.90
20091;DHT22;10205;49.678;6.560;2023-09-07T12:59:53;32.00;46.60
20091;DHT22;10205;49.678;6.560;2023-09-07T13:02:20;32.00;45.40
20091;DHT22;10205;49.678;6.560;2023-09-07T13:04:47;32.10;45.60
20091;DHT22;10205;49.678;6.560;2023-09-07T13:07:14;32.10;45.70
20091;DHT22;10205;49.678;6.560;2023-09-07T13:09:43;32.20;45.80
20091;DHT22;10205;49.678;6.560;2023-09-07T13:12:10;32.20;45.80
20091;DHT22;10205;49.678;6.560;2023-09-07T13:14:39;32.30;45.90
20091;DHT22;10205;49.678;6.560;2023-09-07T13:17:09;32.40;45.80
20091;DHT22;10205;49.678;6.560;2023-09-07T13:19:39;32.40;45.70
20091;DHT22;10205;49.678;6.560;2023-09-07T13:22:06;32.50;45.70
20091;DHT22;10205;49.678;6.560;2023-09-07T13:24:33;32.50;45.40
20091;DHT22;10205;49.678;6.560;2023-09-07T13:27:00;32.60;45.40
20091;DHT22;10205;49.678;6.560;2023-09-07T13:29:27;32.60;45.20
20091;DHT22;10205;49.678;6.560;2023-09-07T13:31:56;32.70;45.10
20091;DHT22;10205;49.678;6.560;2023-09-07T13:34:24;32.70;44.90
20091;DHT22;10205;49.678;6.560;2023-09-07T13:36:51;32.70;44.80
20091;DHT22;10205;49.678;6.560;2023-09-07T13:39:19;32.80;44.60
20091;DHT22;10205;49.678;6.560;2023-09-07T13:41:46;32.80;44.00
20091;DHT22;10205;49.678;6.560;2023-09-07T13:44:14;32.80;44.30
20091;DHT22;10205;49.678;6.560;2023-09-07T13:46:42;32.90;44.30
20091;DHT22;10205;49.678;6.560;2023-09-07T13:49:11;32.90;43.10
20091;DHT22;10205;49.678;6.560;2023-09-07T13:51:40;32.90;43.60
20091;DHT22;10205;49.678;6.560;2023-09-07T13:54:08;32.90;43.40
20091;DHT22;10205;49.678;6.560;2023-09-07T13:56:35;32.90;43.80
20091;DHT22;10205;49.678;6.560;2023-09-07T13:59:03;33.00;43.20
20091;DHT22;10205;49.678;6.560;2023-09-07T14:01:30;33.00;43.80
20091;DHT22;10205;49.678;6.560;2023-09-07T14:03:57;33.00;43.90
20091;DHT22;10205;49.678;6.560;2023-09-07T14:06:26;33.00;43.90
20091;DHT22;10205;49.678;6.560;2023-09-07T14:08:53;33.00;43.90
20091;DHT22;10205;49.678;6.560;2023-09-07T14:11:20;33.00;43.70
20091;DHT22;10205;49.678;6.560;2023-09-07T14:13:49;33.00;43.60
20091;DHT22;10205;49.678;6.560;2023-09-07T14:16:17;33.10;43.80
20091;DHT22;10205;49.678;6.560;2023-09-07T14:18:45;33.00;43.30
20091;DHT22;10205;49.678;6.560;2023-09-07T14:21:14;33.10;43.40
20091;DHT22;10205;49.678;6.560;2023-09-07T14:23:43;33.10;43.50
20091;DHT22;10205;49.678;6.560;2023-09-07T14:26:11;33.10;43.50
20091;DHT22;10205;49.678;6.560;2023-09-07T14:28:39;33.20;43.70
20091;DHT22;10205;49.678;6.560;2023-09-07T14:31:06;33.30;43.50
20091;DHT22;10205;49.678;6.560;2023-09-07T14:33:34;33.40;44.30
20091;DHT22;10205;49.678;6.560;2023-09-07T14:36:04;33.50;43.70
20091;DHT22;10205;49.678;6.560;2023-09-07T14:38:32;33.50;43.70
20091;DHT22;10205;49.678;6.560;2023-09-07T14:41:01;33.60;43.50
20091;DHT22;10205;49.678;6.560;2023-09-07T14:43:28;33.70;43.40
20091;DHT22;10205;49.678;6.560;2023-09-07T14:45:55;33.80;43.50
20091;DHT22;10205;49.678;6.560;2023-09-07T14:48:23;33.90;43.30
20091;DHT22;10205;49.678;6.560;2023-09-07T14:50:50;34.00;43.10
20091;DHT22;10205;49.678;6.560;2023-09-07T14:53:18;34.00;43.00
20091;DHT22;10205;49.678;6.560;2023-09-07T14:55:45;34.10;42.90
20091;DHT22;10205;49.678;6.560;2023-09-07T14:58:13;34.10;42.90
20091;DHT22;10205;49.678;6.560;2023-09-07T15:00:40;34.20;42.60
20091;DHT22;10205;49.678;6.560;2023-09-07T15:03:07;34.30;42.80
20091;DHT22;10205;49.678;6.560;2023-09-07T15:05:35;34.30;42.50
20091;DHT22;10205;49.678;6.560;2023-09-07T15:08:03;34.40;42.70
20091;DHT22;10205;49.678;6.560;2023-09-07T15:10:32;34.40;42.40
20091;DHT22;10205;49.678;6.560;2023-09-07T15:12:59;34.40;42.50
20091;DHT22;10205;49.678;6.560;2023-09-07T15:15:30;34.50;42.90
20091;DHT22;10205;49.678;6.560;2023-09-07T15:17:59;34.50;42.10
20091;DHT22;10205;49.678;6.560;2023-09-07T15:20:26;34.50;42.30
20091;DHT22;10205;49.678;6.560;2023-09-07T15:22:53;34.50;42.10
20091;DHT22;10205;49.678;6.560;2023-09-07T15:25:21;34.60;42.20
20091;DHT22;10205;49.678;6.560;2023-09-07T15:27:48;34.60;42.20
20091;DHT22;10205;49.678;6.560;2023-09-07T15:30:15;34.60;42.20
20091;DHT22;10205;49.678;6.560;2023-09-07T15:32:44;34.60;41.70
20091;DHT22;10205;49.678;6.560;2023-09-07T15:35:11;34.60;41.50